sensor_id;sensor_type;location;lat;lon;timestamp;P1;durP1;ratioP1;P2;durP2;ratioP2
31990;SDS011;18508;49.386;8.370;2024-03-23T00:54:18;17.30;;;9.45;;
31990;SDS011;18508;49.386;8.370;2024-03-23T00:56:47;17.23;;;9.85;;
31990;SDS011;18508;49.386;8.370;2024-03-23T00:59:13;19.08;;;10.52;;
31990;SDS011;18508;49.386;8.370;2024-03-23T01:01:40;16.45;;;9.45;;
31990;SDS011;18508;49.386;8.370;2024-03-23T01:04:06;15.95;;;9.52;;
31990;SDS011;18508;49.386;8.370;2024-03-23T01:06:33;16.05;;;9.80;;
31990;SDS011;18508;49.386;8.370;2024-03-23T01:08:59;14.45;;;9.25;;
31990;SDS011;18508;49.386;8.370;2024-03-23T01:11:27;16.55;;;9.43;;
31990;SDS011;18508;49.386;8.370;2024-03-23T01:13:54;16.98;;;9.23;;
31990;SDS011;18508;49.386;8.370;2024-03-23T01:16:22;16.60;;;10.02;;
31990;SDS011;18508;49.386;8.370;2024-03-23T01:18:48;13.45;;;9.20;;
31990;SDS011;18508;49.386;8.370;2024-03-23T01:21:15;16.23;;;9.70;;
31990;SDS011;18508;49.386;8.370;2024-03-23T01:23:41;14.93;;;9.10;;
31990;SDS011;18508;49.386;8.370;2024-03-23T01:26:08;16.08;;;9.63;;
31990;SDS011;18508;49.386;8.370;2024-03-23T01:28:35;14.38;;;8.93;;
31990;SDS011;18508;49.386;8.370;2024-03-23T01:31:04;18.25;;;9.48;;
31990;SDS011;18508;49.386;8.370;2024-03-23T01:33:30;15.02;;;9.25;;
31990;SDS011;18508;49.386;8.370;2024-03-23T01:35:57;15.88;;;8.75;;
31990;SDS011;18508;49.386;8.370;2024-03-23T01:38:23;14.18;;;8.90;;
31990;SDS011;18508;49.386;8.370;2024-03-23T01:40:55;16.73;;;9.20;;
31990;SDS011;18508;49.386;8.370;2024-03-23T01:43:22;15.57;;;8.85;;
31990;SDS011;18508;49.386;8.370;2024-03-23T01:45:49;14.48;;;8.88;;
31990;SDS011;18508;49.386;8.370;2024-03-23T01:48:17;18.27;;;8.82;;
31990;SDS011;18508;49.386;8.370;2024-03-23T01:50:45;20.02;;;9.23;;
31990;SDS011;18508;49.386;8.370;2024-03-23T01:53:12;14.77;;;8.60;;
31990;SDS011;18508;49.386;8.370;2024-03-23T01:55:42;15.10;;;8.90;;
31990;SDS011;18508;49.386;8.370;2024-03-23T01:58:08;13.85;;;8.60;;
31990;SDS011;18508;49.386;8.370;2024-03-23T02:00:35;14.45;;;8.85;;
31990;SDS011;18508;49.386;8.370;2024-03-23T02:03:02;15.82;;;8.73;;
31990;SDS011;18508;49.386;8.370;2024-03-23T02:05:30;13.48;;;8.95;;
31990;SDS011;18508;49.386;8.370;2024-03-23T02:07:56;20.27;;;9.05;;
31990;SDS011;18508;49.386;8.370;2024-03-23T02:10:24;15.38;;;9.00;;
31990;SDS011;18508;49.386;8.370;2024-03-23T02:12:50;15.73;;;8.88;;
31990;SDS011;18508;49.386;8.370;2024-03-23T02:15:17;17.23;;;8.52;;
31990;SDS011;18508;49.386;8.370;2024-03-23T02:17:43;16.98;;;9.73;;
31990;SDS011;18508;49.386;8.370;2024-03-23T02:20:11;13.45;;;8.32;;
31990;SDS011;18508;49.386;8.370;2024-03-23T02:22:39;15.68;;;9.20;;
31990;SDS011;18508;49.386;8.370;2024-03-23T02:25:07;15.07;;;9.10;;
31990;SDS011;18508;49.386;8.370;2024-03-23T02:27:33;14.68;;;8.48;;
31990;SDS011;18508;49.386;8.370;2024-03-23T02:30:01;18.60;;;9.57;;
31990;SDS011;18508;49.386;8.370;2024-03-23T02:32:27;14.85;;;9.82;;
31990;SDS011;18508;49.386;8.370;2024-03-23T02:34:54;12.13;;;8.60;;
31990;SDS011;18508;49.386;8.370;2024-03-23T02:37:20;16.35;;;8.30;;
31990;SDS011;18508;49.386;8.370;2024-03-23T02:39:48;16.08;;;9.00;;
31990;SDS011;18508;49.386;8.370;2024-03-23T02:42:15;17.38;;;9.38;;
31990;SDS011;18508;49.386;8.370;2024-03-23T02:44:43;17.80;;;9.80;;
31990;SDS011;18508;49.386;8.370;2024-03-23T02:47:09;17.73;;;9.23;;
31990;SDS011;18508;49.386;8.370;2024-03-23T02:49:36;15.63;;;9.50;;
31990;SDS011;18508;49.386;8.370;2024-03-23T02:52:03;16.50;;;9.25;;
31990;SDS011;18508;49.386;8.370;2024-03-23T02:54:30;13.98;;;9.10;;
31990;SDS011;18508;49.386;8.370;2024-03-23T02:56:56;15.57;;;9.68;;
31990;SDS011;18508;49.386;8.370;2024-03-23T02:59:24;16.98;;;9.07;;
31990;SDS011;18508;49.386;8.370;2024-03-23T03:01:51;14.82;;;8.82;;
31990;SDS011;18508;49.386;8.370;2024-03-23T03:04:18;14.43;;;9.05;;
31990;SDS011;18508;49.386;8.370;2024-03-23T03:06:46;17.92;;;9.93;;
31990;SDS011;18508;49.386;8.370;2024-03-23T03:09:13;17.35;;;9.60;;
31990;SDS011;18508;49.386;8.370;2024-03-23T03:11:39;15.25;;;9.50;;
31990;SDS011;18508;49.386;8.370;2024-03-23T03:14:06;16.30;;;9.57;;
31990;SDS011;18508;49.386;8.370;2024-03-23T03:16:34;19.15;;;9.15;;
31990;SDS011;18508;49.386;8.370;2024-03-23T03:19:01;19.35;;;9.48;;
31990;SDS011;18508;49.386;8.370;2024-03-23T03:21:27;16.27;;;9.55;;
31990;SDS011;18508;49.386;8.370;2024-03-23T03:23:55;19.35;;;10.65;;
31990;SDS011;18508;49.386;8.370;2024-03-23T03:26:24;18.38;;;10.07;;
31990;SDS011;18508;49.386;8.370;2024-03-23T03:28:51;15.88;;;10.30;;
31990;SDS011;18508;49.386;8.370;2024-03-23T03:31:17;17.38;;;10.00;;
31990;SDS011;18508;49.386;8.370;2024-03-23T03:33:45;17.48;;;10.25;;
31990;SDS011;18508;49.386;8.370;2024-03-23T03:36:11;21.05;;;10.93;;
31990;SDS011;18508;49.386;8.370;2024-03-23T03:38:39;18.73;;;11.10;;
31990;SDS011;18508;49.386;8.370;2024-03-23T03:41:05;20.30;;;10.55;;
31990;SDS011;18508;49.386;8.370;2024-03-23T03:43:32;24.17;;;10.32;;
31990;SDS011;18508;49.386;8.370;2024-03-23T03:45:59;22.95;;;11.88;;
31990;SDS011;18508;49.386;8.370;2024-03-23T03:48:27;20.67;;;10.65;;
31990;SDS011;18508;49.386;8.370;2024-03-23T03:50:55;18.98;;;10.27;;
31990;SDS011;18508;49.386;8.370;2024-03-23T03:53:22;24.85;;;11.30;;
31990;SDS011;18508;49.386;8.370;2024-03-23T03:55:48;20.30;;;11.68;;
31990;SDS011;18508;49.386;8.370;2024-03-23T03:58:15;21.73;;;10.90;;
31990;SDS011;18508;49.386;8.370;2024-03-23T04:00:41;22.13;;;10.68;;
31990;SDS011;18508;49.386;8.370;2024-03-23T04:03:08;23.33;;;10.57;;
31990;SDS011;18508;49.386;8.370;2024-03-23T04:05:34;21.25;;;10.95;;
31990;SDS011;18508;49.386;8.370;2024-03-23T04:08:03;21.23;;;10.45;;
31990;SDS011;18508;49.386;8.370;2024-03-23T04:10:29;20.05;;;10.23;;
31990;SDS011;18508;49.386;8.370;2024-03-23T04:12:57;18.90;;;10.00;;
31990;SDS011;18508;49.386;8.370;2024-03-23T04:15:23;19.83;;;9.88;;
31990;SDS011;18508;49.386;8.370;2024-03-23T04:17:50;17.75;;;9.40;;
31990;SDS011;18508;49.386;8.370;2024-03-23T04:20:16;21.80;;;9.98;;
31990;SDS011;18508;49.386;8.370;2024-03-23T04:22:43;21.67;;;10.25;;
31990;SDS011;18508;49.386;8.370;2024-03-23T04:25:11;17.80;;;10.13;;
31990;SDS011;18508;49.386;8.370;2024-03-23T04:27:39;18.05;;;9.18;;
31990;SDS011;18508;49.386;8.370;2024-03-23T04:30:06;17.77;;;9.43;;
31990;SDS011;18508;49.386;8.370;2024-03-23T04:32:36;20.10;;;9.48;;
31990;SDS011;18508;49.386;8.370;2024-03-23T04:35:02;18.25;;;9.10;;
31990;SDS011;18508;49.386;8.370;2024-03-23T04:37:31;14.98;;;8.35;;
31990;SDS011;18508;49.386;8.370;2024-03-23T04:39:59;16.20;;;8.48;;
31990;SDS011;18508;49.386;8.370;2024-03-23T04:42:28;16.92;;;8.32;;
31990;SDS011;18508;49.386;8.370;2024-03-23T04:44:55;17.95;;;7.20;;
31990;SDS011;18508;49.386;8.370;2024-03-23T04:47:22;14.65;;;7.47;;
31990;SDS011;18508;49.386;8.370;2024-03-23T04:49:49;12.73;;;6.85;;
31990;SDS011;18508;49.386;8.370;2024-03-23T04:52:17;9.82;;;5.82;;
31990;SDS011;18508;49.386;8.370;2024-03-23T04:54:44;10.38;;;4.90;;
31990;SDS011;18508;49.386;8.370;2024-03-23T04:57:11;8.68;;;4.85;;
31990;SDS011;18508;49.386;8.370;2024-03-23T04:59:39;9.82;;;4.75;;
31990;SDS011;18508;49.386;8.370;2024-03-23T05:02:05;11.43;;;4.15;;
31990;SDS011;18508;49.386;8.370;2024-03-23T05:04:32;7.28;;;2.58;;
31990;SDS011;18508;49.386;8.370;2024-03-23T05:06:59;5.85;;;2.15;;
31990;SDS011;18508;49.386;8.370;2024-03-23T05:09:25;5.07;;;2.72;;
31990;SDS011;18508;49.386;8.370;2024-03-23T05:11:55;5.78;;;2.13;;
31990;SDS011;18508;49.386;8.370;2024-03-23T05:14:22;4.47;;;2.20;;
31990;SDS011;18508;49.386;8.370;2024-03-23T05:16:50;5.80;;;2.30;;
31990;SDS011;18508;49.386;8.370;2024-03-23T05:19:17;4.00;;;2.55;;
31990;SDS011;18508;49.386;8.370;2024-03-23T05:21:43;3.95;;;2.25;;
31990;SDS011;18508;49.386;8.370;2024-03-23T05:24:11;4.40;;;2.30;;
31990;SDS011;18508;49.386;8.370;2024-03-23T05:26:37;5.65;;;2.58;;
31990;SDS011;18508;49.386;8.370;2024-03-23T05:29:04;4.45;;;2.33;;
31990;SDS011;18508;49.386;8.370;2024-03-23T05:31:36;6.07;;;2.50;;
31990;SDS011;18508;49.386;8.370;2024-03-23T05:34:04;5.55;;;2.65;;
31990;SDS011;18508;49.386;8.370;2024-03-23T05:36:30;4.70;;;2.17;;
31990;SDS011;18508;49.386;8.370;2024-03-23T05:38:57;3.63;;;1.90;;
31990;SDS011;18508;49.386;8.370;2024-03-23T05:41:23;6.82;;;1.85;;
31990;SDS011;18508;49.386;8.370;2024-03-23T05:43:54;6.38;;;1.92;;
31990;SDS011;18508;49.386;8.370;2024-03-23T05:46:20;4.65;;;2.10;;
31990;SDS011;18508;49.386;8.370;2024-03-23T05:48:47;7.72;;;2.15;;
31990;SDS011;18508;49.386;8.370;2024-03-23T05:51:14;4.22;;;1.83;;
31990;SDS011;18508;49.386;8.370;2024-03-23T05:53:42;2.78;;;1.30;;
31990;SDS011;18508;49.386;8.370;2024-03-23T05:56:08;4.38;;;1.60;;
31990;SDS011;18508;49.386;8.370;2024-03-23T05:58:35;2.83;;;1.20;;
31990;SDS011;18508;49.386;8.370;2024-03-23T06:01:01;3.20;;;1.10;;
31990;SDS011;18508;49.386;8.370;2024-03-23T06:03:30;2.78;;;0.77;;
31990;SDS011;18508;49.386;8.370;2024-03-23T06:05:56;2.45;;;1.15;;
31990;SDS011;18508;49.386;8.370;2024-03-23T06:08:24;3.03;;;1.20;;
31990;SDS011;18508;49.386;8.370;2024-03-23T06:10:51;2.50;;;1.00;;
31990;SDS011;18508;49.386;8.370;2024-03-23T06:13:18;3.10;;;0.93;;
31990;SDS011;18508;49.386;8.370;2024-03-23T06:15:44;3.38;;;0.90;;
31990;SDS011;18508;49.386;8.370;2024-03-23T06:18:11;2.40;;;0.90;;
31990;SDS011;18508;49.386;8.370;2024-03-23T06:20:38;1.70;;;0.93;;
31990;SDS011;18508;49.386;8.370;2024-03-23T06:23:05;1.65;;;0.80;;
31990;SDS011;18508;49.386;8.370;2024-03-23T06:25:33;1.88;;;0.50;;
31990;SDS011;18508;49.386;8.370;2024-03-23T06:28:00;1.50;;;0.60;;
31990;SDS011;18508;49.386;8.370;2024-03-23T06:30:27;2.55;;;0.57;;
31990;SDS011;18508;49.386;8.370;2024-03-23T06:32:54;2.45;;;0.60;;
31990;SDS011;18508;49.386;8.370;2024-03-23T06:35:21;0.90;;;0.40;;
31990;SDS011;18508;49.386;8.370;2024-03-23T06:37:48;1.00;;;0.50;;
31990;SDS011;18508;49.386;8.370;2024-03-23T06:40:14;2.20;;;0.95;;
31990;SDS011;18508;49.386;8.370;2024-03-23T06:42:43;0.73;;;0.40;;
31990;SDS011;18508;49.386;8.370;2024-03-23T06:45:09;0.68;;;0.40;;
31990;SDS011;18508;49.386;8.370;2024-03-23T06:47:36;0.85;;;0.40;;
31990;SDS011;18508;49.386;8.370;2024-03-23T06:50:03;0.90;;;0.30;;
31990;SDS011;18508;49.386;8.370;2024-03-23T06:52:31;1.80;;;0.50;;
31990;SDS011;18508;49.386;8.370;2024-03-23T06:54:57;0.95;;;0.40;;
31990;SDS011;18508;49.386;8.370;2024-03-23T06:57:24;0.63;;;0.28;;
31990;SDS011;18508;49.386;8.370;2024-03-23T06:59:52;0.88;;;0.30;;
31990;SDS011;18508;49.386;8.370;2024-03-23T07:02:19;2.17;;;0.30;;
31990;SDS011;18508;49.386;8.370;2024-03-23T07:04:45;2.40;;;0.35;;
31990;SDS011;18508;49.386;8.370;2024-03-23T07:07:12;4.30;;;0.60;;
31990;SDS011;18508;49.386;8.370;2024-03-23T07:09:38;1.48;;;0.40;;
31990;SDS011;18508;49.386;8.370;2024-03-23T07:12:06;1.25;;;0.40;;
31990;SDS011;18508;49.386;8.370;2024-03-23T07:14:32;1.08;;;0.50;;
31990;SDS011;18508;49.386;8.370;2024-03-23T07:17:01;2.67;;;1.27;;
31990;SDS011;18508;49.386;8.370;2024-03-23T07:19:27;5.40;;;0.75;;
31990;SDS011;18508;49.386;8.370;2024-03-23T07:21:54;1.75;;;0.57;;
31990;SDS011;18508;49.386;8.370;2024-03-23T07:24:20;1.17;;;0.60;;
31990;SDS011;18508;49.386;8.370;2024-03-23T07:26:47;1.42;;;0.50;;
31990;SDS011;18508;49.386;8.370;2024-03-23T07:29:15;2.50;;;1.05;;
31990;SDS011;18508;49.386;8.370;2024-03-23T07:31:42;2.58;;;0.65;;
31990;SDS011;18508;49.386;8.370;2024-03-23T07:34:10;2.25;;;0.60;;
31990;SDS011;18508;49.386;8.370;2024-03-23T07:36:37;2.60;;;0.93;;
31990;SDS011;18508;49.386;8.370;2024-03-23T07:39:03;2.25;;;1.00;;
31990;SDS011;18508;49.386;8.370;2024-03-23T07:41:30;2.78;;;1.13;;
31990;SDS011;18508;49.386;8.370;2024-03-23T07:43:56;4.03;;;1.25;;
31990;SDS011;18508;49.386;8.370;2024-03-23T07:46:23;4.32;;;1.20;;
31990;SDS011;18508;49.386;8.370;2024-03-23T07:48:50;3.50;;;1.13;;
31990;SDS011;18508;49.386;8.370;2024-03-23T07:51:19;5.55;;;1.55;;
31990;SDS011;18508;49.386;8.370;2024-03-23T07:53:46;2.80;;;1.95;;
31990;SDS011;18508;49.386;8.370;2024-03-23T07:56:14;5.07;;;1.33;;
31990;SDS011;18508;49.386;8.370;2024-03-23T07:58:41;4.68;;;1.77;;
31990;SDS011;18508;49.386;8.370;2024-03-23T08:01:09;5.40;;;1.67;;
31990;SDS011;18508;49.386;8.370;2024-03-23T08:03:37;4.07;;;1.27;;
31990;SDS011;18508;49.386;8.370;2024-03-23T08:06:08;7.32;;;1.55;;
31990;SDS011;18508;49.386;8.370;2024-03-23T08:08:38;3.88;;;1.73;;
31990;SDS011;18508;49.386;8.370;2024-03-23T08:11:05;3.45;;;1.50;;
31990;SDS011;18508;49.386;8.370;2024-03-23T08:13:33;7.53;;;2.55;;
31990;SDS011;18508;49.386;8.370;2024-03-23T08:16:00;7.95;;;1.70;;
31990;SDS011;18508;49.386;8.370;2024-03-23T08:18:28;5.82;;;2.00;;
31990;SDS011;18508;49.386;8.370;2024-03-23T08:20:57;5.93;;;2.22;;
31990;SDS011;18508;49.386;8.370;2024-03-23T08:23:25;6.40;;;1.60;;
31990;SDS011;18508;49.386;8.370;2024-03-23T08:25:54;3.65;;;1.40;;
31990;SDS011;18508;49.386;8.370;2024-03-23T08:28:24;6.30;;;1.52;;
31990;SDS011;18508;49.386;8.370;2024-03-23T08:30:50;6.05;;;1.30;;
31990;SDS011;18508;49.386;8.370;2024-03-23T08:33:18;6.72;;;1.80;;
31990;SDS011;18508;49.386;8.370;2024-03-23T08:35:52;7.65;;;2.03;;
31990;SDS011;18508;49.386;8.370;2024-03-23T08:38:21;7.18;;;1.65;;
31990;SDS011;18508;49.386;8.370;2024-03-23T08:40:47;8.20;;;2.00;;
31990;SDS011;18508;49.386;8.370;2024-03-23T08:43:15;4.22;;;1.70;;
31990;SDS011;18508;49.386;8.370;2024-03-23T08:45:42;5.15;;;2.22;;
31990;SDS011;18508;49.386;8.370;2024-03-23T08:48:09;9.07;;;2.72;;
31990;SDS011;18508;49.386;8.370;2024-03-23T08:50:35;7.18;;;2.97;;
31990;SDS011;18508;49.386;8.370;2024-03-23T08:53:02;5.30;;;1.75;;
31990;SDS011;18508;49.386;8.370;2024-03-23T08:55:28;7.88;;;3.33;;
31990;SDS011;18508;49.386;8.370;2024-03-23T08:57:55;9.77;;;2.75;;
31990;SDS011;18508;49.386;8.370;2024-03-23T09:00:23;7.35;;;2.55;;
31990;SDS011;18508;49.386;8.370;2024-03-23T09:02:50;9.48;;;3.78;;
31990;SDS011;18508;49.386;8.370;2024-03-23T09:05:16;8.30;;;2.53;;
31990;SDS011;18508;49.386;8.370;2024-03-23T09:07:43;9.63;;;3.85;;
31990;SDS011;18508;49.386;8.370;2024-03-23T09:10:09;9.65;;;3.38;;
31990;SDS011;18508;49.386;8.370;2024-03-23T09:12:36;9.48;;;2.95;;
31990;SDS011;18508;49.386;8.370;2024-03-23T09:15:03;10.88;;;3.15;;
31990;SDS011;18508;49.386;8.370;2024-03-23T09:17:32;9.82;;;3.45;;
31990;SDS011;18508;49.386;8.370;2024-03-23T09:19:58;11.27;;;3.25;;
31990;SDS011;18508;49.386;8.370;2024-03-23T09:22:25;10.50;;;3.58;;
31990;SDS011;18508;49.386;8.370;2024-03-23T09:24:51;6.70;;;3.05;;
31990;SDS011;18508;49.386;8.370;2024-03-23T09:27:18;8.60;;;3.05;;
31990;SDS011;18508;49.386;8.370;2024-03-23T09:29:44;11.18;;;3.10;;
31990;SDS011;18508;49.386;8.370;2024-03-23T09:32:11;6.80;;;2.60;;
31990;SDS011;18508;49.386;8.370;2024-03-23T09:34:39;8.32;;;2.50;;
31990;SDS011;18508;49.386;8.370;2024-03-23T09:37:06;8.73;;;4.05;;
31990;SDS011;18508;49.386;8.370;2024-03-23T09:39:32;9.80;;;3.03;;
31990;SDS011;18508;49.386;8.370;2024-03-23T09:41:59;6.70;;;2.60;;
31990;SDS011;18508;49.386;8.370;2024-03-23T09:44:26;9.20;;;3.85;;
31990;SDS011;18508;49.386;8.370;2024-03-23T09:46:58;11.07;;;3.63;;
31990;SDS011;18508;49.386;8.370;2024-03-23T09:49:24;10.18;;;3.25;;
31990;SDS011;18508;49.386;8.370;2024-03-23T09:51:53;7.28;;;2.65;;
31990;SDS011;18508;49.386;8.370;2024-03-23T09:54:20;7.68;;;3.28;;
31990;SDS011;18508;49.386;8.370;2024-03-23T09:56:48;6.70;;;2.47;;
31990;SDS011;18508;49.386;8.370;2024-03-23T09:59:14;8.43;;;2.92;;
31990;SDS011;18508;49.386;8.370;2024-03-23T10:01:41;8.50;;;2.63;;
31990;SDS011;18508;49.386;8.370;2024-03-23T10:04:08;6.82;;;3.25;;
31990;SDS011;18508;49.386;8.370;2024-03-23T10:06:35;7.82;;;2.60;;
31990;SDS011;18508;49.386;8.370;2024-03-23T10:09:03;8.63;;;3.80;;
31990;SDS011;18508;49.386;8.370;2024-03-23T10:11:43;12.02;;;3.28;;
31990;SDS011;18508;49.386;8.370;2024-03-23T10:14:16;11.35;;;4.45;;
31990;SDS011;18508;49.386;8.370;2024-03-23T10:16:58;11.43;;;3.30;;
31990;SDS011;18508;49.386;8.370;2024-03-23T10:19:39;6.55;;;3.00;;
31990;SDS011;18508;49.386;8.370;2024-03-23T10:22:07;10.00;;;2.75;;
31990;SDS011;18508;49.386;8.370;2024-03-23T10:24:35;9.88;;;3.03;;
31990;SDS011;18508;49.386;8.370;2024-03-23T10:27:02;8.20;;;3.35;;
31990;SDS011;18508;49.386;8.370;2024-03-23T10:29:28;9.07;;;2.55;;
31990;SDS011;18508;49.386;8.370;2024-03-23T10:32:00;8.27;;;2.70;;
31990;SDS011;18508;49.386;8.370;2024-03-23T10:34:33;11.23;;;2.40;;
31990;SDS011;18508;49.386;8.370;2024-03-23T10:37:01;8.30;;;2.33;;
31990;SDS011;18508;49.386;8.370;2024-03-23T10:39:29;6.28;;;1.75;;
31990;SDS011;18508;49.386;8.370;2024-03-23T10:41:59;8.38;;;2.05;;
31990;SDS011;18508;49.386;8.370;2024-03-23T10:44:27;5.60;;;1.90;;
31990;SDS011;18508;49.386;8.370;2024-03-23T10:46:56;12.57;;;3.30;;
31990;SDS011;18508;49.386;8.370;2024-03-23T10:49:26;5.90;;;1.70;;
31990;SDS011;18508;49.386;8.370;2024-03-23T10:51:59;8.32;;;1.95;;
31990;SDS011;18508;49.386;8.370;2024-03-23T10:54:26;10.93;;;1.60;;
31990;SDS011;18508;49.386;8.370;2024-03-23T10:56:57;11.98;;;2.00;;
31990;SDS011;18508;49.386;8.370;2024-03-23T10:59:29;7.47;;;2.05;;
31990;SDS011;18508;49.386;8.370;2024-03-23T11:01:57;7.82;;;2.30;;
31990;SDS011;18508;49.386;8.370;2024-03-23T11:04:31;4.43;;;1.70;;
31990;SDS011;18508;49.386;8.370;2024-03-23T11:07:06;4.25;;;1.80;;
31990;SDS011;18508;49.386;8.370;2024-03-23T11:09:54;7.68;;;1.90;;
31990;SDS011;18508;49.386;8.370;2024-03-23T11:12:27;4.93;;;1.48;;
31990;SDS011;18508;49.386;8.370;2024-03-23T11:14:59;4.68;;;1.75;;
31990;SDS011;18508;49.386;8.370;2024-03-23T11:17:29;6.80;;;2.13;;
31990;SDS011;18508;49.386;8.370;2024-03-23T11:19:56;7.43;;;2.20;;
31990;SDS011;18508;49.386;8.370;2024-03-23T11:22:37;9.25;;;2.33;;
31990;SDS011;18508;49.386;8.370;2024-03-23T11:25:11;10.18;;;2.40;;
31990;SDS011;18508;49.386;8.370;2024-03-23T11:27:40;5.43;;;1.77;;
31990;SDS011;18508;49.386;8.370;2024-03-23T11:30:14;12.13;;;2.75;;
31990;SDS011;18508;49.386;8.370;2024-03-23T11:32:42;8.15;;;2.30;;
31990;SDS011;18508;49.386;8.370;2024-03-23T11:35:10;5.97;;;2.45;;
31990;SDS011;18508;49.386;8.370;2024-03-23T11:37:37;10.13;;;2.20;;
31990;SDS011;18508;49.386;8.370;2024-03-23T11:40:19;5.95;;;2.10;;
31990;SDS011;18508;49.386;8.370;2024-03-23T11:42:48;7.50;;;2.25;;
31990;SDS011;18508;49.386;8.370;2024-03-23T11:45:21;9.55;;;1.70;;
31990;SDS011;18508;49.386;8.370;2024-03-23T11:47:48;15.38;;;2.95;;
31990;SDS011;18508;49.386;8.370;2024-03-23T11:50:19;6.32;;;2.20;;
31990;SDS011;18508;49.386;8.370;2024-03-23T11:52:48;22.58;;;7.82;;
31990;SDS011;18508;49.386;8.370;2024-03-23T11:55:14;113.03;;;40.80;;
31990;SDS011;18508;49.386;8.370;2024-03-23T11:57:43;18.55;;;5.80;;
31990;SDS011;18508;49.386;8.370;2024-03-23T12:00:21;10.18;;;3.22;;
31990;SDS011;18508;49.386;8.370;2024-03-23T12:02:49;5.72;;;2.28;;
31990;SDS011;18508;49.386;8.370;2024-03-23T12:05:15;20.33;;;8.27;;
31990;SDS011;18508;49.386;8.370;2024-03-23T12:07:43;9.63;;;4.38;;
31990;SDS011;18508;49.386;8.370;2024-03-23T12:10:09;6.97;;;2.78;;
31990;SDS011;18508;49.386;8.370;2024-03-23T12:12:36;7.75;;;3.25;;
31990;SDS011;18508;49.386;8.370;2024-03-23T12:15:02;4.90;;;2.22;;
31990;SDS011;18508;49.386;8.370;2024-03-23T12:17:32;4.13;;;1.92;;
31990;SDS011;18508;49.386;8.370;2024-03-23T12:20:00;4.03;;;1.05;;
31990;SDS011;18508;49.386;8.370;2024-03-23T12:22:29;6.43;;;2.05;;
31990;SDS011;18508;49.386;8.370;2024-03-23T12:24:56;4.68;;;1.80;;
31990;SDS011;18508;49.386;8.370;2024-03-23T12:27:23;2.90;;;1.45;;
31990;SDS011;18508;49.386;8.370;2024-03-23T12:29:49;6.72;;;2.15;;
31990;SDS011;18508;49.386;8.370;2024-03-23T12:32:16;5.95;;;1.70;;
31990;SDS011;18508;49.386;8.370;2024-03-23T12:34:45;7.25;;;1.85;;
31990;SDS011;18508;49.386;8.370;2024-03-23T12:37:12;8.43;;;2.15;;
31990;SDS011;18508;49.386;8.370;2024-03-23T12:39:38;12.32;;;2.90;;
31990;SDS011;18508;49.386;8.370;2024-03-23T12:42:06;6.22;;;1.33;;
31990;SDS011;18508;49.386;8.370;2024-03-23T12:44:32;5.13;;;2.22;;
31990;SDS011;18508;49.386;8.370;2024-03-23T12:46:59;8.50;;;2.88;;
31990;SDS011;18508;49.386;8.370;2024-03-23T12:49:25;5.50;;;2.03;;
31990;SDS011;18508;49.386;8.370;2024-03-23T12:51:56;9.50;;;2.40;;
31990;SDS011;18508;49.386;8.370;2024-03-23T12:54:23;3.38;;;1.02;;
31990;SDS011;18508;49.386;8.370;2024-03-23T12:56:50;4.93;;;1.02;;
31990;SDS011;18508;49.386;8.370;2024-03-23T12:59:16;4.38;;;1.05;;
31990;SDS011;18508;49.386;8.370;2024-03-23T13:01:43;4.85;;;1.20;;
31990;SDS011;18508;49.386;8.370;2024-03-23T13:04:09;2.83;;;1.33;;
31990;SDS011;18508;49.386;8.370;2024-03-23T13:06:37;3.47;;;1.13;;
31990;SDS011;18508;49.386;8.370;2024-03-23T13:09:04;3.25;;;1.60;;
31990;SDS011;18508;49.386;8.370;2024-03-23T13:11:31;8.93;;;2.63;;
31990;SDS011;18508;49.386;8.370;2024-03-23T13:13:57;5.55;;;2.03;;
31990;SDS011;18508;49.386;8.370;2024-03-23T13:16:25;7.60;;;2.83;;
31990;SDS011;18508;49.386;8.370;2024-03-23T13:18:51;4.03;;;1.33;;
31990;SDS011;18508;49.386;8.370;2024-03-23T13:21:18;11.63;;;1.73;;
31990;SDS011;18508;49.386;8.370;2024-03-23T13:23:46;4.63;;;1.25;;
31990;SDS011;18508;49.386;8.370;2024-03-23T13:26:17;2.88;;;1.08;;
31990;SDS011;18508;49.386;8.370;2024-03-23T13:28:43;3.00;;;1.20;;
31990;SDS011;18508;49.386;8.370;2024-03-23T13:31:11;6.53;;;2.30;;
31990;SDS011;18508;49.386;8.370;2024-03-23T13:33:37;3.83;;;1.80;;
31990;SDS011;18508;49.386;8.370;2024-03-23T13:36:05;5.70;;;1.60;;
31990;SDS011;18508;49.386;8.370;2024-03-23T13:38:31;4.10;;;1.17;;
31990;SDS011;18508;49.386;8.370;2024-03-23T13:40:59;3.50;;;1.15;;
31990;SDS011;18508;49.386;8.370;2024-03-23T13:43:27;2.85;;;1.15;;
31990;SDS011;18508;49.386;8.370;2024-03-23T13:45:55;4.13;;;0.88;;
31990;SDS011;18508;49.386;8.370;2024-03-23T13:48:22;2.63;;;0.93;;
31990;SDS011;18508;49.386;8.370;2024-03-23T13:50:56;3.30;;;0.80;;
31990;SDS011;18508;49.386;8.370;2024-03-23T13:53:23;4.97;;;1.80;;
31990;SDS011;18508;49.386;8.370;2024-03-23T13:55:50;2.10;;;1.10;;
31990;SDS011;18508;49.386;8.370;2024-03-23T13:58:16;6.07;;;2.17;;
31990;SDS011;18508;49.386;8.370;2024-03-23T14:00:44;3.92;;;1.95;;
31990;SDS011;18508;49.386;8.370;2024-03-23T14:03:11;6.97;;;2.47;;
31990;SDS011;18508;49.386;8.370;2024-03-23T14:05:39;5.00;;;2.00;;
31990;SDS011;18508;49.386;8.370;2024-03-23T14:08:06;6.68;;;1.77;;
31990;SDS011;18508;49.386;8.370;2024-03-23T14:10:33;6.40;;;1.50;;
31990;SDS011;18508;49.386;8.370;2024-03-23T14:13:01;4.65;;;2.03;;
31990;SDS011;18508;49.386;8.370;2024-03-23T14:15:28;5.35;;;2.40;;
31990;SDS011;18508;49.386;8.370;2024-03-23T14:17:56;4.45;;;1.20;;
31990;SDS011;18508;49.386;8.370;2024-03-23T14:20:23;4.88;;;1.25;;
31990;SDS011;18508;49.386;8.370;2024-03-23T14:22:51;5.22;;;1.83;;
31990;SDS011;18508;49.386;8.370;2024-03-23T14:25:18;6.07;;;2.20;;
31990;SDS011;18508;49.386;8.370;2024-03-23T14:27:46;4.78;;;1.30;;
31990;SDS011;18508;49.386;8.370;2024-03-23T14:30:13;2.58;;;0.70;;
31990;SDS011;18508;49.386;8.370;2024-03-23T14:32:39;3.20;;;1.05;;
31990;SDS011;18508;49.386;8.370;2024-03-23T14:35:08;6.03;;;1.20;;
31990;SDS011;18508;49.386;8.370;2024-03-23T14:37:36;3.80;;;1.38;;
31990;SDS011;18508;49.386;8.370;2024-03-23T14:40:04;8.30;;;2.20;;
31990;SDS011;18508;49.386;8.370;2024-03-23T14:42:30;4.00;;;1.27;;
31990;SDS011;18508;49.386;8.370;2024-03-23T14:44:58;2.60;;;1.40;;
31990;SDS011;18508;49.386;8.370;2024-03-23T14:47:24;2.15;;;0.82;;
31990;SDS011;18508;49.386;8.370;2024-03-23T14:49:51;1.77;;;0.75;;
31990;SDS011;18508;49.386;8.370;2024-03-23T14:52:19;3.65;;;0.80;;
31990;SDS011;18508;49.386;8.370;2024-03-23T14:54:46;4.95;;;1.20;;
31990;SDS011;18508;49.386;8.370;2024-03-23T14:57:15;4.30;;;1.00;;
31990;SDS011;18508;49.386;8.370;2024-03-23T14:59:44;2.67;;;1.02;;
31990;SDS011;18508;49.386;8.370;2024-03-23T15:02:10;4.82;;;1.60;;
31990;SDS011;18508;49.386;8.370;2024-03-23T15:04:38;2.05;;;0.90;;
31990;SDS011;18508;49.386;8.370;2024-03-23T15:07:07;2.15;;;0.80;;
31990;SDS011;18508;49.386;8.370;2024-03-23T15:09:35;2.72;;;1.05;;
31990;SDS011;18508;49.386;8.370;2024-03-23T15:12:02;2.42;;;0.90;;
31990;SDS011;18508;49.386;8.370;2024-03-23T15:14:29;2.00;;;0.82;;
31990;SDS011;18508;49.386;8.370;2024-03-23T15:16:55;2.42;;;1.00;;
31990;SDS011;18508;49.386;8.370;2024-03-23T15:19:22;3.03;;;1.02;;
31990;SDS011;18508;49.386;8.370;2024-03-23T15:21:48;2.38;;;1.10;;
31990;SDS011;18508;49.386;8.370;2024-03-23T15:24:17;6.45;;;2.10;;
31990;SDS011;18508;49.386;8.370;2024-03-23T15:26:44;4.72;;;1.23;;
31990;SDS011;18508;49.386;8.370;2024-03-23T15:29:11;4.25;;;1.02;;
31990;SDS011;18508;49.386;8.370;2024-03-23T15:31:42;6.28;;;1.10;;
31990;SDS011;18508;49.386;8.370;2024-03-23T15:34:09;2.55;;;0.90;;
31990;SDS011;18508;49.386;8.370;2024-03-23T15:36:35;3.10;;;0.70;;
31990;SDS011;18508;49.386;8.370;2024-03-23T15:39:03;1.88;;;0.40;;